createdAt,value
2023-04-11T00:01:46.622Z,10.46
2023-04-11T00:04:14.981Z,10.40
2023-04-11T00:06:42.175Z,10.48
2023-04-11T00:09:10.797Z,10.53
2023-04-11T00:11:37.363Z,10.53
2023-04-11T00:14:05.536Z,10.52
2023-04-11T00:16:34.012Z,10.51
2023-04-11T00:19:03.587Z,10.39
2023-04-11T00:21:33.706Z,10.39
2023-04-11T00:24:00.399Z,10.39
2023-04-11T00:26:27.294Z,10.34
2023-04-11T00:28:54.454Z,10.33
2023-04-11T00:31:21.353Z,10.36
2023-04-11T00:33:47.953Z,10.33
2023-04-11T00:36:19.588Z,10.25
2023-04-11T00:38:48.857Z,10.24
2023-04-11T00:41:20.453Z,10.19
2023-04-11T00:43:49.882Z,10.10
2023-04-11T00:46:17.266Z,10.05
2023-04-11T00:48:43.954Z,10.05
2023-04-11T00:51:10.589Z,10.06
2023-04-11T00:53:41.963Z,10.07
2023-04-11T00:56:08.982Z,10.03
2023-04-11T00:58:37.799Z,10.03
2023-04-11T01:01:09.173Z,10.02
2023-04-11T01:03:37.543Z,10.03
2023-04-11T01:06:06.932Z,10.02
2023-04-11T01:08:34.102Z,10.01
2023-04-11T01:11:01.023Z,10.01
2023-04-11T01:13:27.823Z,9.98
2023-04-11T01:15:54.492Z,9.89
2023-04-11T01:18:21.144Z,9.79
2023-04-11T01:20:47.737Z,9.61
2023-04-11T01:23:14.316Z,9.34
2023-04-11T01:25:41.265Z,9.36
2023-04-11T01:28:08.845Z,9.44
2023-04-11T01:30:35.667Z,9.43
2023-04-11T01:33:02.366Z,9.43
2023-04-11T01:35:28.988Z,9.42
2023-04-11T01:37:55.745Z,9.49
2023-04-11T01:40:23.831Z,9.55
2023-04-11T01:42:51.546Z,9.53
2023-04-11T01:45:21.010Z,9.56
2023-04-11T01:47:49.599Z,9.54
2023-04-11T01:50:19.492Z,9.57
2023-04-11T01:52:46.268Z,9.59
2023-04-11T01:55:15.517Z,9.52
2023-04-11T01:57:44.582Z,9.41
2023-04-11T02:00:11.841Z,9.22
2023-04-11T02:02:46.375Z,9.22
2023-04-11T02:05:17.786Z,9.23
2023-04-11T02:07:45.156Z,9.28
2023-04-11T02:10:17.235Z,9.13
2023-04-11T02:12:43.978Z,9.08
2023-04-11T02:15:10.916Z,9.04
2023-04-11T02:17:37.550Z,9.04
2023-04-11T02:20:07.091Z,9.06
2023-04-11T02:22:36.598Z,9.13
2023-04-11T02:25:03.216Z,9.15
2023-04-11T02:27:32.838Z,8.99
2023-04-11T02:30:00.910Z,8.95
2023-04-11T02:32:30.462Z,8.74
2023-04-11T02:34:57.184Z,8.71
2023-04-11T02:37:26.130Z,8.78
2023-04-11T02:39:52.793Z,8.80
2023-04-11T02:42:21.855Z,8.81
2023-04-11T02:44:48.557Z,8.77
2023-04-11T02:47:18.937Z,8.69
2023-04-11T02:49:45.688Z,8.64
2023-04-11T02:52:18.275Z,8.60
2023-04-11T02:54:46.135Z,8.62
2023-04-11T02:57:15.324Z,8.59
2023-04-11T02:59:45.126Z,8.52
2023-04-11T03:02:14.937Z,8.45
2023-04-11T03:04:41.998Z,8.45
2023-04-11T03:07:15.229Z,8.44
2023-04-11T03:09:42.067Z,8.52
2023-04-11T03:12:09.028Z,8.53
2023-04-11T03:14:43.627Z,8.51
2023-04-11T03:17:10.177Z,8.53
2023-04-11T03:19:36.952Z,8.56
2023-04-11T03:22:07.813Z,8.56
2023-04-11T03:24:34.472Z,8.58
2023-04-11T03:27:01.869Z,8.63
2023-04-11T03:29:32.731Z,8.67
2023-04-11T03:32:11.828Z,8.74
2023-04-11T03:34:38.878Z,8.81
2023-04-11T03:37:10.447Z,8.81
2023-04-11T03:39:41.076Z,8.85
2023-04-11T03:42:07.759Z,8.80
2023-04-11T03:44:37.292Z,8.74
2023-04-11T03:47:03.951Z,8.71
2023-04-11T03:49:37.148Z,8.69
2023-04-11T03:52:05.127Z,8.76
2023-04-11T03:54:31.967Z,8.81
2023-04-11T03:56:59.543Z,8.87
2023-04-11T03:59:26.872Z,8.86
2023-04-11T04:01:58.928Z,8.87
2023-04-11T04:04:26.368Z,8.75
2023-04-11T04:07:06.872Z,8.65
2023-04-11T04:09:38.309Z,8.61
2023-04-11T04:12:07.707Z,8.58
2023-04-11T04:15:01.389Z,8.53
2023-04-11T04:17:30.863Z,8.61
2023-04-11T04:19:58.858Z,8.72
2023-04-11T04:22:26.634Z,8.75
2023-04-11T04:24:58.288Z,8.76
2023-04-11T04:27:30.316Z,8.77
2023-04-11T04:30:04.297Z,8.69
2023-04-11T04:32:55.007Z,8.72
2023-04-11T04:35:23.893Z,8.80
2023-04-11T04:37:51.053Z,8.74
2023-04-11T04:40:31.601Z,8.56
2023-04-11T04:43:09.158Z,8.63
2023-04-11T04:45:42.265Z,8.69
2023-04-11T04:48:12.762Z,8.69
2023-04-11T04:50:39.708Z,8.78
2023-04-11T04:53:08.994Z,8.81
2023-04-11T04:55:39.176Z,8.80
2023-04-11T04:58:06.907Z,8.85
2023-04-11T05:00:33.806Z,8.91
2023-04-11T05:03:05.775Z,8.89
2023-04-11T05:05:32.720Z,8.88
2023-04-11T05:08:01.141Z,8.99
2023-04-11T05:10:36.771Z,8.91
2023-04-11T05:13:05.562Z,9.02
2023-04-11T05:15:33.207Z,9.04
2023-04-11T05:18:02.418Z,9.15
2023-04-11T05:20:33.745Z,9.33
2023-04-11T05:23:00.913Z,9.34
2023-04-11T05:25:33.003Z,9.49
2023-04-11T05:28:03.189Z,9.53
2023-04-11T05:30:29.966Z,9.62
2023-04-11T05:32:56.618Z,9.72
2023-04-11T05:35:23.729Z,9.85
2023-04-11T05:37:53.180Z,9.99
2023-04-11T05:40:22.560Z,9.94
2023-04-11T05:42:49.191Z,9.84
2023-04-11T05:45:15.893Z,9.90
2023-04-11T05:47:45.277Z,10.16
2023-04-11T05:50:14.009Z,10.31
2023-04-11T05:52:44.288Z,10.47
2023-04-11T05:55:14.088Z,10.63
2023-04-11T05:57:43.055Z,10.74
2023-04-11T06:00:13.245Z,10.97
2023-04-11T06:02:42.059Z,11.08
2023-04-11T06:05:12.441Z,11.13
2023-04-11T06:07:39.645Z,11.21
2023-04-11T06:10:06.778Z,11.42
2023-04-11T06:12:33.357Z,11.63
2023-04-11T06:15:00.063Z,11.45
2023-04-11T06:17:26.910Z,11.42
2023-04-11T06:19:58.284Z,11.54
2023-04-11T06:22:24.911Z,11.63
2023-04-11T06:24:54.359Z,11.63
2023-04-11T06:27:21.010Z,11.40
2023-04-11T06:29:47.620Z,11.45
2023-04-11T06:32:16.846Z,11.47
2023-04-11T06:34:46.083Z,11.46
2023-04-11T06:37:12.834Z,11.58
2023-04-11T06:39:41.866Z,11.75
2023-04-11T06:42:08.736Z,11.90
2023-04-11T06:44:35.460Z,11.96
2023-04-11T06:47:04.466Z,12.01
2023-04-11T06:49:33.664Z,11.94
2023-04-11T06:52:00.363Z,11.86
2023-04-11T06:54:27.151Z,11.81
2023-04-11T06:56:53.996Z,11.80
2023-04-11T06:59:21.518Z,11.88
2023-04-11T07:01:48.834Z,12.02
2023-04-11T07:04:18.961Z,12.17
2023-04-11T07:06:46.464Z,12.27
2023-04-11T07:09:13.144Z,12.43
2023-04-11T07:11:39.824Z,12.66
2023-04-11T07:14:06.517Z,12.82
2023-04-11T07:16:35.413Z,13.04
2023-04-11T07:19:04.501Z,13.34
2023-04-11T07:21:33.708Z,13.75
2023-04-11T07:24:03.060Z,14.11
2023-04-11T07:26:32.841Z,14.41
2023-04-11T07:29:02.285Z,14.70
2023-04-11T07:31:31.945Z,14.88
2023-04-11T07:34:01.362Z,14.94
2023-04-11T07:36:28.378Z,15.03
2023-04-11T07:39:07.649Z,15.20
2023-04-11T07:41:43.114Z,14.96
2023-04-11T07:44:12.108Z,14.73
2023-04-11T07:46:41.556Z,14.64
2023-04-11T07:49:10.826Z,14.64
2023-04-11T07:51:37.567Z,14.69
2023-04-11T07:54:04.653Z,14.81
2023-04-11T07:56:31.281Z,14.94
2023-04-11T07:58:58.716Z,14.86
2023-04-11T08:01:25.926Z,14.78
2023-04-11T08:03:56.319Z,14.76
2023-04-11T08:06:26.664Z,14.59
2023-04-11T08:08:56.609Z,14.76
2023-04-11T08:11:23.363Z,15.11
2023-04-11T08:13:50.826Z,15.38
2023-04-11T08:16:17.724Z,15.54
2023-04-11T08:18:45.694Z,15.34
2023-04-11T08:21:12.595Z,15.49
2023-04-11T08:23:42.734Z,15.73
2023-04-11T08:26:09.957Z,15.84
2023-04-11T08:28:40.015Z,15.63
2023-04-11T08:31:12.729Z,15.79
2023-04-11T08:33:42.330Z,15.76
2023-04-11T08:36:10.331Z,15.89
2023-04-11T08:38:40.067Z,16.09
2023-04-11T08:41:06.893Z,16.02
2023-04-11T08:43:34.029Z,15.81
2023-04-11T08:46:06.192Z,15.90
2023-04-11T08:48:35.640Z,15.79
2023-04-11T08:51:02.485Z,16.09
2023-04-11T08:53:29.310Z,16.13
2023-04-11T08:56:00.019Z,15.76
2023-04-11T08:58:29.011Z,15.62
2023-04-11T09:00:56.060Z,15.85
2023-04-11T09:03:22.894Z,15.98
2023-04-11T09:05:52.458Z,15.89
2023-04-11T09:08:21.474Z,15.98
2023-04-11T09:10:48.233Z,16.18
2023-04-11T09:13:29.014Z,16.43
2023-04-11T09:16:09.513Z,16.29
2023-04-11T09:18:36.579Z,16.21
2023-04-11T09:21:04.438Z,16.10
2023-04-11T09:23:33.936Z,16.14
2023-04-11T09:26:01.384Z,16.10
2023-04-11T09:28:39.096Z,16.13
2023-04-11T09:31:05.990Z,16.16
2023-04-11T09:33:37.416Z,16.45
2023-04-11T09:36:17.828Z,16.02
2023-04-11T09:38:47.326Z,15.89
2023-04-11T09:41:16.637Z,15.84
2023-04-11T09:43:53.135Z,15.58
2023-04-11T09:46:22.253Z,15.50
2023-04-11T09:48:49.101Z,15.58
2023-04-11T09:51:31.937Z,16.06
2023-04-11T09:54:04.211Z,16.41
2023-04-11T09:56:34.539Z,16.19
2023-04-11T10:21:38.017Z,16.87
2023-04-11T10:24:17.010Z,17.54
2023-04-11T10:30:46.490Z,17.88
2023-04-11T10:33:17.664Z,18.40
2023-04-11T10:36:03.895Z,18.69
2023-04-11T10:38:37.040Z,19.12
2023-04-11T10:41:27.668Z,19.10
2023-04-11T10:44:13.688Z,18.89
2023-04-11T10:46:47.818Z,19.11
2023-04-11T10:49:36.791Z,18.89
2023-04-11T10:52:22.941Z,18.64
2023-04-11T10:54:50.743Z,18.73
2023-04-11T10:57:17.893Z,18.58
2023-04-11T10:59:44.629Z,18.86
2023-04-11T11:02:13.873Z,19.18
2023-04-11T11:04:41.238Z,19.69
2023-04-11T11:07:08.453Z,19.71
2023-04-11T11:09:35.660Z,19.54
2023-04-11T11:12:12.856Z,19.44
2023-04-11T11:14:40.390Z,18.71
2023-04-11T11:17:07.364Z,18.07
2023-04-11T11:19:34.755Z,18.13
2023-04-11T11:22:05.130Z,18.81
2023-04-11T11:24:31.973Z,19.11
2023-04-11T11:27:03.703Z,19.33
2023-04-11T11:29:32.200Z,19.20
2023-04-11T11:32:03.906Z,19.49
2023-04-11T11:34:34.459Z,20.03
2023-04-11T11:37:01.874Z,20.36
2023-04-11T11:39:28.570Z,20.06
2023-04-11T11:41:57.870Z,19.83
2023-04-11T11:44:25.415Z,20.04
2023-04-11T11:47:01.565Z,19.52
2023-04-11T11:49:31.265Z,19.92
2023-04-11T11:52:02.850Z,19.97
2023-04-11T11:54:29.540Z,20.60
2023-04-11T11:56:58.600Z,21.63
2023-04-11T11:59:28.230Z,21.88
2023-04-11T12:01:54.895Z,21.16
2023-04-11T12:04:24.261Z,20.92
2023-04-11T12:06:50.996Z,20.24
2023-04-11T12:09:17.684Z,19.81
2023-04-11T12:11:47.034Z,19.65
2023-04-11T12:14:22.096Z,19.77
2023-04-11T12:16:48.728Z,20.31
2023-04-11T12:19:15.590Z,20.38
2023-04-11T12:21:42.518Z,20.54
2023-04-11T12:24:11.939Z,21.24
2023-04-11T12:26:45.594Z,21.43
2023-04-11T12:29:21.932Z,21.50
2023-04-11T12:31:48.766Z,21.75
2023-04-11T12:34:15.680Z,21.82
2023-04-11T12:36:44.903Z,21.54
2023-04-11T12:39:11.730Z,22.35
2023-04-11T12:41:38.482Z,23.39
2023-04-11T12:44:07.530Z,23.04
2023-04-11T12:46:34.411Z,22.57
2023-04-11T12:49:03.279Z,22.14
2023-04-11T12:51:34.478Z,21.58
2023-04-11T12:54:04.072Z,21.14
2023-04-11T12:56:30.799Z,20.52
2023-04-11T12:58:57.599Z,20.16
2023-04-11T13:01:24.640Z,19.93
2023-04-11T13:03:52.192Z,19.70
2023-04-11T13:06:19.668Z,19.49
2023-04-11T13:08:49.470Z,19.33
2023-04-11T13:11:18.588Z,19.67
2023-04-11T13:13:45.492Z,19.80
2023-04-11T13:16:12.462Z,19.22
2023-04-11T13:18:39.253Z,19.18
2023-04-11T13:21:06.055Z,19.59
2023-04-11T13:23:35.226Z,19.64
2023-04-11T13:26:02.314Z,19.12
2023-04-11T13:28:29.349Z,18.58
2023-04-11T13:30:56.427Z,18.42
2023-04-11T13:33:31.289Z,18.35
2023-04-11T13:36:03.246Z,18.61
2023-04-11T13:38:29.961Z,19.17
2023-04-11T13:40:56.726Z,19.16
2023-04-11T13:43:25.776Z,19.12
2023-04-11T13:45:55.278Z,18.82
2023-04-11T13:48:27.302Z,18.39
2023-04-11T13:50:57.542Z,18.19
2023-04-11T13:53:24.491Z,18.20
2023-04-11T13:55:54.142Z,18.45
2023-04-11T13:58:23.625Z,18.79
2023-04-11T14:00:52.842Z,18.94
2023-04-11T14:03:19.706Z,18.65
2023-04-11T14:05:49.030Z,18.28
2023-04-11T14:08:17.005Z,17.88
2023-04-11T14:10:48.787Z,17.89
2023-04-11T14:13:17.875Z,17.77
2023-04-11T14:15:49.631Z,17.42
2023-04-11T14:18:18.765Z,17.40
2023-04-11T14:20:45.402Z,17.51
2023-04-11T14:23:13.857Z,17.71
2023-04-11T14:25:45.732Z,17.74
2023-04-11T14:28:13.575Z,17.85
2023-04-11T14:30:42.657Z,18.02
2023-04-11T14:33:09.408Z,17.56
2023-04-11T14:35:36.205Z,17.14
2023-04-11T14:38:07.766Z,16.94
2023-04-11T14:40:34.429Z,16.84
2023-04-11T14:43:04.297Z,16.30
2023-04-11T14:45:33.328Z,15.97
2023-04-11T14:48:04.959Z,15.80
2023-04-11T14:50:32.321Z,15.89
2023-04-11T14:52:59.037Z,16.10
2023-04-11T14:55:25.780Z,16.07
2023-04-11T14:57:55.664Z,16.13
2023-04-11T15:00:25.146Z,15.98
2023-04-11T15:02:53.595Z,15.67
2023-04-11T15:05:23.398Z,15.36
2023-04-11T15:07:53.094Z,15.21
2023-04-11T15:10:23.706Z,14.99
2023-04-11T15:12:50.560Z,14.86
2023-04-11T15:15:19.553Z,14.87
2023-04-11T15:17:49.256Z,14.82
2023-04-11T15:20:16.759Z,14.66
2023-04-11T15:22:46.849Z,14.53
2023-04-11T15:25:14.725Z,14.11
2023-04-11T15:27:41.936Z,13.70
2023-04-11T15:30:09.030Z,13.35
2023-04-11T15:32:41.757Z,12.76
2023-04-11T15:35:10.820Z,12.47
2023-04-11T15:37:39.694Z,12.14
2023-04-11T15:40:06.982Z,11.90
2023-04-11T15:42:37.590Z,11.72
2023-04-11T15:45:04.839Z,11.63
2023-04-11T15:47:31.583Z,11.58
2023-04-11T15:50:02.429Z,11.49
2023-04-11T15:52:35.739Z,11.37
2023-04-11T15:55:09.671Z,11.30
2023-04-11T15:57:45.905Z,11.24
2023-04-11T16:00:34.860Z,11.24
2023-04-11T16:03:04.943Z,11.26
2023-04-11T16:05:32.762Z,11.46
2023-04-11T16:07:59.735Z,11.51
2023-04-11T16:10:26.917Z,11.57
2023-04-11T16:12:53.816Z,11.75
2023-04-11T16:15:20.776Z,11.94
2023-04-11T16:17:47.719Z,12.01
2023-04-11T16:20:18.976Z,12.08
2023-04-11T16:22:46.707Z,12.34
2023-04-11T16:25:16.386Z,12.50
2023-04-11T16:27:43.845Z,12.42
2023-04-11T16:30:11.109Z,12.48
2023-04-11T16:32:40.149Z,12.45
2023-04-11T16:35:07.320Z,12.63
2023-04-11T16:37:39.000Z,12.82
2023-04-11T16:40:11.777Z,13.03
2023-04-11T16:42:39.141Z,13.13
2023-04-11T16:45:06.980Z,13.24
2023-04-11T16:47:36.541Z,13.26
2023-04-11T16:50:08.494Z,13.27
2023-04-11T16:52:35.100Z,13.25
2023-04-11T16:55:03.265Z,13.58
2023-04-11T16:57:35.559Z,13.91
2023-04-11T17:00:10.803Z,14.20
2023-04-11T17:02:37.736Z,14.35
2023-04-11T17:05:06.980Z,14.40
2023-04-11T17:07:36.777Z,14.46
2023-04-11T17:10:07.076Z,14.45
2023-04-11T17:12:39.636Z,14.36
2023-04-11T17:15:08.571Z,14.24
2023-04-11T17:17:37.621Z,14.17
2023-04-11T17:20:09.539Z,14.13
2023-04-11T17:22:41.452Z,14.16
2023-04-11T17:25:11.469Z,14.11
2023-04-11T17:27:38.127Z,14.15
2023-04-11T17:30:12.497Z,14.21
2023-04-11T17:32:39.291Z,14.29
2023-04-11T17:35:06.786Z,14.22
2023-04-11T17:37:34.066Z,14.08
2023-04-11T17:40:13.556Z,14.13
2023-04-11T17:42:46.030Z,14.14
2023-04-11T17:45:18.792Z,14.12
2023-04-11T17:47:48.995Z,14.09
2023-04-11T17:50:15.812Z,13.94
2023-04-11T17:52:50.129Z,13.81
2023-04-11T17:55:24.300Z,13.86
2023-04-11T17:57:51.689Z,13.84
2023-04-11T18:00:23.394Z,13.62
2023-04-11T18:02:52.449Z,13.27
2023-04-11T18:05:23.591Z,12.84
2023-04-11T18:07:52.348Z,12.61
2023-04-11T18:10:22.150Z,12.41
2023-04-11T18:12:49.865Z,12.46
2023-04-11T18:15:16.866Z,12.71
2023-04-11T18:17:46.556Z,12.82
2023-04-11T18:20:14.220Z,12.84
2023-04-11T18:22:49.332Z,12.80
2023-04-11T18:25:16.477Z,12.79
2023-04-11T18:27:45.720Z,12.74
2023-04-11T18:30:13.037Z,12.71
2023-04-11T18:32:45.197Z,12.60
2023-04-11T18:35:16.260Z,12.59
2023-04-11T18:37:44.091Z,12.55
2023-04-11T18:40:14.426Z,12.47
2023-04-11T18:42:47.765Z,12.50
2023-04-11T18:45:23.078Z,12.34
2023-04-11T18:47:50.881Z,12.37
2023-04-11T18:50:18.780Z,12.47
2023-04-11T18:52:54.971Z,12.47
2023-04-11T18:55:25.521Z,12.39
2023-04-11T18:57:56.620Z,12.14
2023-04-11T19:00:26.186Z,11.93
2023-04-11T19:02:53.593Z,11.84
2023-04-11T19:05:21.306Z,11.83
2023-04-11T19:07:48.335Z,11.76
2023-04-11T19:10:15.737Z,11.71
2023-04-11T19:12:42.893Z,11.63
2023-04-11T19:15:11.955Z,11.60
2023-04-11T19:17:39.187Z,11.40
2023-04-11T19:20:29.259Z,11.43
2023-04-11T19:22:56.376Z,11.57
2023-04-11T19:25:23.266Z,11.63
2023-04-11T19:27:51.255Z,11.71
2023-04-11T19:30:18.086Z,11.67
2023-04-11T19:32:48.804Z,11.64
2023-04-11T19:35:15.482Z,11.68
2023-04-11T19:37:42.932Z,11.50
2023-04-11T19:40:15.737Z,11.32
2023-04-11T19:42:43.260Z,11.32
2023-04-11T19:45:10.739Z,11.33
2023-04-11T19:47:43.719Z,11.16
2023-04-11T19:50:22.509Z,11.14
2023-04-11T19:52:49.239Z,11.14
2023-04-11T19:55:16.077Z,11.17
2023-04-11T20:00:37.754Z,11.30
2023-04-11T20:03:08.071Z,11.23
2023-04-11T20:05:37.047Z,11.18
2023-04-11T20:08:03.798Z,11.19
2023-04-11T20:10:30.782Z,11.25
2023-04-11T20:12:57.625Z,11.31
2023-04-11T20:15:36.910Z,11.40
2023-04-11T20:18:06.545Z,11.41
2023-04-11T20:20:33.959Z,11.39
2023-04-11T20:23:04.998Z,11.38
2023-04-11T20:25:35.082Z,11.43
2023-04-11T20:28:02.167Z,11.50
2023-04-11T20:30:30.065Z,11.28
2023-04-11T20:32:56.829Z,11.08
2023-04-11T20:35:23.848Z,11.04
2023-04-11T20:37:51.163Z,10.88
2023-04-11T20:40:25.159Z,10.76
2023-04-11T20:42:51.973Z,10.74
2023-04-11T20:45:21.950Z,10.54
2023-04-11T20:47:52.895Z,10.26
2023-04-11T20:50:22.995Z,10.13
2023-04-11T20:52:54.317Z,10.12
2023-04-11T20:55:21.226Z,10.19
2023-04-11T20:57:48.046Z,10.24
2023-04-11T21:00:17.672Z,10.27
2023-04-11T21:02:45.951Z,10.34
2023-04-11T21:05:15.287Z,10.45
2023-04-11T21:07:42.332Z,10.54
2023-04-11T21:10:09.548Z,10.56
2023-04-11T21:12:36.500Z,10.57
2023-04-11T21:15:04.044Z,10.51
2023-04-11T21:17:39.610Z,10.56
2023-04-11T21:20:11.335Z,10.54
2023-04-11T21:22:40.301Z,10.43
2023-04-11T21:25:10.206Z,10.41
2023-04-11T21:27:40.963Z,10.36
2023-04-11T21:30:12.891Z,10.44
2023-04-11T21:32:44.402Z,10.30
2023-04-11T21:35:11.758Z,10.23
2023-04-11T21:37:40.810Z,10.14
2023-04-11T21:40:07.888Z,9.97
2023-04-11T21:42:34.749Z,9.92
2023-04-11T21:45:01.436Z,10.06
2023-04-11T21:47:31.641Z,10.11
2023-04-11T21:49:58.531Z,10.10
2023-04-11T21:52:30.218Z,9.99
2023-04-11T21:55:07.238Z,9.97
2023-04-11T21:57:35.403Z,9.93
2023-04-11T22:00:04.903Z,9.82
2023-04-11T22:02:38.875Z,9.85
2023-04-11T22:05:07.488Z,9.55
2023-04-11T22:07:48.480Z,9.37
2023-04-11T22:10:22.579Z,9.28
2023-04-11T22:12:57.927Z,9.21
2023-04-11T22:15:27.515Z,9.28
2023-04-11T22:17:56.824Z,9.19
2023-04-11T22:20:28.737Z,9.12
2023-04-11T22:22:58.716Z,9.02
2023-04-11T22:25:25.957Z,8.89
2023-04-11T22:27:56.406Z,8.86
2023-04-11T22:30:24.483Z,8.66
2023-04-11T22:32:55.650Z,8.64
2023-04-11T22:35:26.156Z,8.77
2023-04-11T22:37:55.391Z,8.71
2023-04-11T22:40:27.442Z,8.58
2023-04-11T22:42:56.554Z,8.56
2023-04-11T22:45:23.759Z,8.46
2023-04-11T22:47:56.839Z,8.31
2023-04-11T22:50:23.643Z,8.20
2023-04-11T22:52:54.741Z,8.04
2023-04-11T22:55:26.366Z,8.11
2023-04-11T22:57:53.231Z,7.96
2023-04-11T23:00:22.002Z,7.97
2023-04-11T23:02:48.690Z,7.97
2023-04-11T23:05:17.996Z,7.91
2023-04-11T23:07:44.676Z,7.72
2023-04-11T23:10:14.293Z,7.60
2023-04-11T23:12:41.601Z,7.48
2023-04-11T23:15:13.832Z,7.44
2023-04-11T23:17:41.438Z,7.39
2023-04-11T23:20:12.486Z,7.33
2023-04-11T23:22:42.459Z,7.35
2023-04-11T23:25:12.106Z,7.29
2023-04-11T23:27:38.832Z,7.24
2023-04-11T23:30:11.860Z,7.22
2023-04-11T23:32:39.079Z,7.18
2023-04-11T23:35:08.335Z,7.17
2023-04-11T23:37:37.198Z,7.16
2023-04-11T23:40:11.117Z,7.16
2023-04-11T23:42:40.273Z,7.10
2023-04-11T23:45:07.507Z,7.05
2023-04-11T23:47:40.698Z,7.11
2023-04-11T23:50:09.724Z,7.12
2023-04-11T23:52:36.377Z,7.09
2023-04-11T23:55:06.256Z,7.04
